Time;durP1;ratioP1;P1;durP2;ratioP2;P2;SDS_P1;SDS_P2;PMS_P1;PMS_P2;Temp;Humidity;BMP_temperature;BMP_pressure;BME280_temperature;BME280_humidity;BME280_pressure;Samples;Min_cycle;Max_cycle;Signal;HPM_P1;HPM_P2
2022/08/01 00:00:16;;;;;;;;;;;;;;;17.25;78.88;95187.97;5114182;28;926;-48
2022/08/01 00:02:42;;;;;;;;;;;;;;;17.19;80.05;95188.78;5114406;28;1016;-47
2022/08/01 00:05:08;;;;;;;;;;;;;;;16.96;80.38;95189.94;5114422;28;983;-47
2022/08/01 00:07:35;;;;;;;;;;;;;;;16.84;80.02;95196.09;5114300;28;1988;-47
2022/08/01 00:10:03;;;;;;;;;;;;;;;16.83;80.76;95191.69;5114160;28;1867;-47
2022/08/01 00:12:29;;;;;;;;;;;;;;;16.81;79.98;95189.19;5114367;28;1039;-47
2022/08/01 00:14:55;;;;;;;;;;;;;;;16.96;80.75;95186.41;5114082;28;1029;-47
2022/08/01 00:17:21;;;;;;;;;;;;;;;17.07;80.49;95193.91;5114114;28;1110;-47
2022/08/01 00:19:47;;;;;;;;;;;;;;;17.12;81.05;95202.25;5113975;28;1115;-47
2022/08/01 00:22:13;;;;;;;;;;;;;;;17.05;81.79;95189.75;5114067;28;1012;-47
2022/08/01 00:24:39;;;;;;;;;;;;;;;16.89;81.86;95193.63;5113934;28;1078;-48
2022/08/01 00:27:05;;;;;;;;;;;;;;;16.95;82.18;95201.75;5113975;28;1918;-47
2022/08/01 00:29:31;;;;;;;;;;;;;;;17.02;81.36;95184.78;5113914;28;988;-48
2022/08/01 00:31:57;;;;;;;;;;;;;;;17.09;80.74;95199.13;5113965;28;1043;-47
2022/08/01 00:34:23;;;;;;;;;;;;;;;16.90;81.42;95196.13;5113953;28;980;-47
2022/08/01 00:36:49;;;;;;;;;;;;;;;16.80;81.93;95195.63;5113948;28;1016;-47
2022/08/01 00:39:15;;;;;;;;;;;;;;;16.66;82.75;95188.47;5113640;28;1025;-48
2022/08/01 00:41:41;;;;;;;;;;;;;;;16.57;82.88;95190.50;5113827;28;1042;-47
2022/08/01 00:44:07;;;;;;;;;;;;;;;16.58;82.76;95186.78;5100356;28;1153;-47
2022/08/01 00:46:33;;;;;;;;;;;;;;;16.65;83.20;95195.72;5075495;28;1990;-47
2022/08/01 00:49:00;;;;;;;;;;;;;;;16.65;83.36;95193.03;5075560;28;961;-47
2022/08/01 00:51:26;;;;;;;;;;;;;;;16.60;82.85;95190.09;5093514;28;957;-47
2022/08/01 00:53:52;;;;;;;;;;;;;;;16.36;82.89;95181.41;5093649;28;957;-47
2022/08/01 00:56:19;;;;;;;;;;;;;;;16.27;83.82;95187.16;5093372;28;987;-47
2022/08/01 00:58:45;;;;;;;;;;;;;;;16.42;82.42;95182.50;5093415;28;1021;-47
2022/08/01 01:01:11;;;;;;;;;;;;;;;16.49;82.40;95177.97;5093374;28;1036;-48
2022/08/01 01:03:37;;;;;;;;;;;;;;;16.48;82.92;95184.41;5093297;28;1953;-47
2022/08/01 01:06:09;;;;;;;;;;;;;;;16.42;83.21;95179.78;5093173;28;1910;-47
2022/08/01 01:08:40;;;;;;;;;;;;;;;16.10;82.88;95179.31;5093258;28;1104;-47
2022/08/01 01:11:10;;;;;;;;;;;;;;;16.16;82.62;95181.28;5093077;28;1036;-47
2022/08/01 01:13:56;;;;;;;;;;;;;;;16.45;81.82;95170.47;5093268;28;988;-47
2022/08/01 01:16:23;;;;;;;;;;;;;;;16.39;81.92;95175.63;5092763;28;1240;-47
2022/08/01 01:18:57;;;;;;;;;;;;;;;16.19;82.64;95172.78;5093371;28;1024;-47
2022/08/01 01:21:34;;;;;;;;;;;;;;;16.12;82.80;95174.56;5093401;28;1071;-47
2022/08/01 01:24:13;;;;;;;;;;;;;;;15.96;84.16;95172.16;5093186;28;1043;-47
2022/08/01 01:26:52;;;;;;;;;;;;;;;16.05;84.59;95173.72;5093158;28;1906;-47
2022/08/01 01:29:27;;;;;;;;;;;;;;;16.12;83.37;95179.13;5093044;28;930;-47
2022/08/01 01:31:53;;;;;;;;;;;;;;;15.95;83.22;95175.88;5092907;28;1036;-47
2022/08/01 01:34:21;;;;;;;;;;;;;;;15.83;82.12;95177.44;5092950;28;1028;-47
2022/08/01 01:36:48;;;;;;;;;;;;;;;15.78;82.71;95173.47;5092841;28;987;-47
2022/08/01 01:39:15;;;;;;;;;;;;;;;15.75;84.87;95183.81;5093146;28;959;-47
2022/08/01 01:41:42;;;;;;;;;;;;;;;15.83;84.53;95172.88;5092814;28;1190;-47
2022/08/01 01:44:09;;;;;;;;;;;;;;;15.97;84.40;95173.81;5106189;28;1149;-47
2022/08/01 01:46:36;;;;;;;;;;;;;;;15.92;83.48;95169.03;5113159;28;1993;-47
2022/08/01 01:49:02;;;;;;;;;;;;;;;15.96;84.54;95172.16;5112168;28;1083;-47
2022/08/01 01:51:29;;;;;;;;;;;;;;;15.97;84.12;95166.59;5113273;28;1028;-47
2022/08/01 01:53:56;;;;;;;;;;;;;;;15.74;83.56;95172.16;5114308;28;1075;-47
2022/08/01 01:56:22;;;;;;;;;;;;;;;15.45;84.32;95158.78;5116817;28;1041;-47
2022/08/01 01:58:51;;;;;;;;;;;;;;;15.62;84.06;95152.13;5117048;28;1034;-47
2022/08/01 02:01:18;;;;;;;;;;;;;;;15.67;84.04;95160.47;5116584;28;1024;-47
2022/08/01 02:03:44;;;;;;;;;;;;;;;15.69;83.76;95160.25;5116671;28;1960;-48
2022/08/01 02:06:13;;;;;;;;;;;;;;;15.55;83.81;95160.13;5116382;28;1905;-47
2022/08/01 02:08:40;;;;;;;;;;;;;;;15.47;84.83;95160.25;5116678;28;1067;-47
2022/08/01 02:11:18;;;;;;;;;;;;;;;15.50;84.23;95167.13;5116377;28;1086;-47
2022/08/01 02:13:56;;;;;;;;;;;;;;;15.54;83.99;95166.56;5116726;28;1120;-47
2022/08/01 02:16:24;;;;;;;;;;;;;;;15.50;84.04;95164.41;5116202;28;1099;-47
2022/08/01 02:18:50;;;;;;;;;;;;;;;15.41;84.98;95171.81;5116717;28;1047;-47
2022/08/01 02:21:19;;;;;;;;;;;;;;;15.41;84.03;95166.41;5116172;28;1048;-47
2022/08/01 02:23:45;;;;;;;;;;;;;;;15.46;84.08;95173.91;5116528;28;1056;-47
2022/08/01 02:26:14;;;;;;;;;;;;;;;15.42;84.60;95176.16;5115993;28;1914;-47
2022/08/01 02:28:47;;;;;;;;;;;;;;;15.39;84.26;95173.84;5116299;28;958;-47
2022/08/01 02:31:16;;;;;;;;;;;;;;;15.46;84.67;95168.53;5116239;28;1023;-47
2022/08/01 02:33:48;;;;;;;;;;;;;;;15.40;84.95;95175.50;5116441;28;1032;-47
2022/08/01 02:36:16;;;;;;;;;;;;;;;15.39;84.40;95169.28;5116076;28;977;-47
2022/08/01 02:38:44;;;;;;;;;;;;;;;15.36;84.29;95161.59;5116040;28;1024;-47
2022/08/01 02:41:14;;;;;;;;;;;;;;;15.20;84.73;95164.53;5115760;28;1063;-47
2022/08/01 02:43:43;;;;;;;;;;;;;;;15.08;84.56;95160.63;5106998;28;1201;-47
2022/08/01 02:46:15;;;;;;;;;;;;;;;14.88;84.86;95158.53;5095420;28;2000;-47
2022/08/01 02:48:42;;;;;;;;;;;;;;;14.92;86.26;95165.22;5095583;28;1051;-47
2022/08/01 02:51:09;;;;;;;;;;;;;;;14.98;85.25;95164.44;5095059;28;1238;-47
2022/08/01 02:53:36;;;;;;;;;;;;;;;15.01;85.43;95165.97;5095475;28;946;-47
2022/08/01 02:56:04;;;;;;;;;;;;;;;14.85;85.59;95172.38;5095076;28;966;-47
2022/08/01 02:58:31;;;;;;;;;;;;;;;14.83;86.48;95167.19;5095507;28;1056;-47
2022/08/01 03:00:58;;;;;;;;;;;;;;;14.91;85.83;95166.25;5095324;28;978;-47
2022/08/01 03:03:24;;;;;;;;;;;;;;;14.78;85.86;95166.91;5095174;28;954;-47
2022/08/01 03:05:50;;;;;;;;;;;;;;;14.87;85.31;95162.25;5095098;28;1922;-47
2022/08/01 03:08:18;;;;;;;;;;;;;;;14.97;84.72;95162.81;5094970;28;1024;-47
2022/08/01 03:10:45;;;;;;;;;;;;;;;14.93;85.15;95166.91;5094992;28;969;-47
2022/08/01 03:13:12;;;;;;;;;;;;;;;14.80;85.90;95158.66;5094993;28;1020;-47
2022/08/01 03:15:40;;;;;;;;;;;;;;;14.80;85.71;95164.84;5094874;28;1068;-47
2022/08/01 03:18:07;;;;;;;;;;;;;;;14.81;85.44;95163.00;5094822;28;966;-47
2022/08/01 03:20:34;;;;;;;;;;;;;;;14.63;85.00;95156.16;5094961;28;1063;-47
2022/08/01 03:23:01;;;;;;;;;;;;;;;14.61;84.58;95165.44;5094666;28;972;-47
2022/08/01 03:25:28;;;;;;;;;;;;;;;14.61;85.93;95174.34;5094715;28;1058;-47
2022/08/01 03:27:56;;;;;;;;;;;;;;;14.70;85.58;95174.22;5094500;28;1898;-47
2022/08/01 03:30:23;;;;;;;;;;;;;;;14.52;85.77;95172.72;5094565;28;1073;-47
2022/08/01 03:32:49;;;;;;;;;;;;;;;14.51;86.54;95162.13;5094472;28;1088;-47
2022/08/01 03:35:15;;;;;;;;;;;;;;;14.69;85.88;95169.88;5094508;28;1068;-47
2022/08/01 03:37:44;;;;;;;;;;;;;;;14.67;85.41;95171.94;5094340;28;914;-47
2022/08/01 03:40:16;;;;;;;;;;;;;;;14.47;85.86;95176.97;5094402;28;1262;-47
2022/08/01 03:42:45;;;;;;;;;;;;;;;14.53;87.13;95182.47;5095435;28;1153;-47
2022/08/01 03:45:15;;;;;;;;;;;;;;;14.68;86.77;95173.59;5114865;28;983;-47
2022/08/01 03:47:43;;;;;;;;;;;;;;;14.86;87.02;95184.81;5114434;28;1909;-47
2022/08/01 03:50:10;;;;;;;;;;;;;;;14.96;85.52;95184.53;5114466;28;1107;-47
2022/08/01 03:52:38;;;;;;;;;;;;;;;14.83;85.26;95186.03;5114443;28;1052;-47
2022/08/01 03:55:06;;;;;;;;;;;;;;;14.76;85.36;95182.41;5114731;28;952;-47
2022/08/01 03:57:33;;;;;;;;;;;;;;;14.84;85.77;95182.31;5114398;28;1977;-47
2022/08/01 04:00:00;;;;;;;;;;;;;;;14.91;85.58;95182.41;5114713;28;997;-47
2022/08/01 04:02:26;;;;;;;;;;;;;;;14.91;85.17;95185.09;5114146;28;1967;-47
2022/08/01 04:04:53;;;;;;;;;;;;;;;14.81;85.60;95185.34;5114478;28;1083;-47
2022/08/01 04:07:26;;;;;;;;;;;;;;;15.04;85.44;95192.47;5114046;28;1901;-47
2022/08/01 04:09:52;;;;;;;;;;;;;;;15.18;84.93;95183.56;5114606;28;1031;-47
2022/08/01 04:12:18;;;;;;;;;;;;;;;15.35;85.13;95184.19;5114188;28;1862;-47
2022/08/01 04:14:44;;;;;;;;;;;;;;;15.31;84.45;95196.34;5114400;28;1012;-47
2022/08/01 04:17:10;;;;;;;;;;;;;;;15.32;84.92;95184.53;5113618;28;1091;-47
2022/08/01 04:19:36;;;;;;;;;;;;;;;15.64;84.66;95186.97;5114073;28;957;-47
2022/08/01 04:22:03;;;;;;;;;;;;;;;15.89;85.20;95187.44;5114341;28;1045;-47
2022/08/01 04:24:30;;;;;;;;;;;;;;;15.92;84.08;95190.59;5113954;28;1881;-47
2022/08/01 04:26:58;;;;;;;;;;;;;;;15.96;83.88;95191.03;5114068;28;1887;-47
2022/08/01 04:29:25;;;;;;;;;;;;;;;16.05;84.47;95191.72;5113867;28;1103;-47
2022/08/01 04:31:52;;;;;;;;;;;;;;;16.22;84.75;95195.00;5114091;28;1121;-47
2022/08/01 04:34:22;;;;;;;;;;;;;;;16.39;84.40;95186.44;5113669;28;961;-47
2022/08/01 04:36:49;;;;;;;;;;;;;;;16.63;83.84;95188.88;5114161;28;1124;-47
2022/08/01 04:39:16;;;;;;;;;;;;;;;16.91;82.52;95188.84;5113868;28;1201;-47
2022/08/01 04:41:44;;;;;;;;;;;;;;;17.13;81.66;95197.69;5113851;28;1640;-47
2022/08/01 04:44:10;;;;;;;;;;;;;;;17.10;80.47;95203.50;5099868;28;1271;-47
2022/08/01 04:46:37;;;;;;;;;;;;;;;17.20;80.96;95195.84;5093453;28;1902;-47
2022/08/01 04:49:05;;;;;;;;;;;;;;;17.35;80.53;95201.09;5093018;28;1231;-48
2022/08/01 04:51:31;;;;;;;;;;;;;;;17.61;78.72;95200.38;5093679;28;993;-47
2022/08/01 04:53:58;;;;;;;;;;;;;;;17.82;78.61;95198.56;5075241;28;1087;-47
2022/08/01 04:56:24;;;;;;;;;;;;;;;17.96;78.40;95197.56;5093278;28;1068;-48
2022/08/01 04:59:39;;;;;;;;;;;;;;;18.05;72.41;95190.91;5093279;28;953;-48
2022/08/01 05:01:36;;;;;;;;;;;;;;;18.10;70.40;95204.66;5093456;28;1539;-48
2022/08/01 05:04:02;;;;;;;;;;;;;;;18.20;71.11;95198.00;5093074;28;1048;-47
2022/08/01 05:06:28;;;;;;;;;;;;;;;18.37;70.88;95215.50;5093444;28;1909;-48
2022/08/01 05:08:54;;;;;;;;;;;;;;;18.56;69.91;95213.00;5093247;28;1048;-48
2022/08/01 05:11:21;;;;;;;;;;;;;;;18.71;67.88;95202.78;5093134;28;1095;-48
2022/08/01 05:13:48;;;;;;;;;;;;;;;18.71;68.38;95208.19;5093003;28;1127;-48
2022/08/01 05:16:14;;;;;;;;;;;;;;;18.81;68.08;95195.06;5093003;28;1009;-48
2022/08/01 05:18:40;;;;;;;;;;;;;;;19.02;67.66;95193.97;5093223;28;997;-48
2022/08/01 05:21:06;;;;;;;;;;;;;;;19.42;68.78;95199.25;5093228;28;978;-48
2022/08/01 05:23:32;;;;;;;;;;;;;;;19.68;66.04;95205.63;5093075;28;1028;-47
2022/08/01 05:25:58;;;;;;;;;;;;;;;19.73;67.50;95210.41;5093165;28;1906;-48
2022/08/01 05:28:24;;;;;;;;;;;;;;;19.82;67.42;95198.25;5093140;28;1060;-48
2022/08/01 05:30:50;;;;;;;;;;;;;;;19.85;67.41;95198.66;5096808;28;1048;-48
2022/08/01 05:33:16;;;;;;;;;;;;;;;19.88;65.92;95195.53;5096892;28;1019;-48
2022/08/01 05:35:42;;;;;;;;;;;;;;;19.88;66.93;95195.53;5097084;28;1182;-48
2022/08/01 05:38:08;;;;;;;;;;;;;;;20.14;66.37;95201.81;5096728;28;1091;-48
2022/08/01 05:40:35;;;;;;;;;;;;;;;20.37;64.69;95200.41;5096879;28;1045;-48
2022/08/01 05:43:01;;;;;;;;;;;;;;;20.52;65.12;95191.94;5100680;28;1281;-48
2022/08/01 05:45:27;;;;;;;;;;;;;;;20.88;64.26;95199.34;5116957;28;1024;-48
2022/08/01 05:47:53;;;;;;;;;;;;;;;21.62;61.96;95192.03;5117259;28;1910;-48
2022/08/01 05:50:19;;;;;;;;;;;;;;;21.78;57.92;95193.31;5116656;28;1250;-48
2022/08/01 05:52:45;;;;;;;;;;;;;;;21.41;60.25;95189.78;5117180;28;1020;-48
2022/08/01 05:55:11;;;;;;;;;;;;;;;21.45;62.83;95188.28;5116711;28;1037;-48
2022/08/01 05:57:37;;;;;;;;;;;;;;;22.11;57.31;95183.00;5116956;28;1029;-48
2022/08/01 06:00:03;;;;;;;;;;;;;;;22.05;57.65;95192.94;5116559;28;1011;-48
2022/08/01 06:02:29;;;;;;;;;;;;;;;21.69;60.23;95186.53;5117055;28;1188;-48
2022/08/01 06:04:55;;;;;;;;;;;;;;;21.39;60.30;95183.75;5116603;28;1037;-48
2022/08/01 06:07:21;;;;;;;;;;;;;;;21.18;60.31;95185.03;5116701;28;1909;-48
2022/08/01 06:09:47;;;;;;;;;;;;;;;21.10;61.34;95175.28;5116525;28;1060;-48
2022/08/01 06:12:13;;;;;;;;;;;;;;;21.19;63.23;95173.94;5116542;28;1024;-48
2022/08/01 06:14:39;;;;;;;;;;;;;;;21.33;61.35;95173.78;5116375;28;1023;-48
2022/08/01 06:17:05;;;;;;;;;;;;;;;21.48;61.55;95171.53;5116677;28;1056;-48
2022/08/01 06:19:31;;;;;;;;;;;;;;;21.72;60.23;95169.75;5116275;28;1980;-48
2022/08/01 06:21:57;;;;;;;;;;;;;;;21.81;59.47;95167.53;5098345;28;1037;-48
2022/08/01 06:24:23;;;;;;;;;;;;;;;21.98;57.32;95175.88;5116264;28;1148;-48
2022/08/01 06:26:49;;;;;;;;;;;;;;;21.93;60.68;95167.56;5116366;28;1984;-48
2022/08/01 06:29:15;;;;;;;;;;;;;;;21.83;59.26;95162.69;5097813;28;1052;-48
2022/08/01 06:31:41;;;;;;;;;;;;;;;22.00;61.26;95162.84;5116392;28;1087;-48
2022/08/01 06:34:07;;;;;;;;;;;;;;;22.05;60.38;95165.72;5116154;28;957;-48
2022/08/01 06:36:33;;;;;;;;;;;;;;;22.22;59.87;95169.41;5116332;28;1036;-48
2022/08/01 06:38:59;;;;;;;;;;;;;;;22.42;56.83;95160.13;5116030;28;966;-48
2022/08/01 06:41:25;;;;;;;;;;;;;;;22.44;57.75;95158.00;5115767;28;1027;-48
2022/08/01 06:43:51;;;;;;;;;;;;;;;22.61;56.41;95156.25;5104880;28;1165;-48
2022/08/01 06:46:17;;;;;;;;;;;;;;;22.55;57.08;95156.34;5095660;28;1910;-48
2022/08/01 06:48:43;;;;;;;;;;;;;;;22.59;55.99;95143.91;5095566;28;1016;-48
2022/08/01 06:51:11;;;;;;;;;;;;;;;22.78;55.00;95144.63;5095153;28;1096;-47
2022/08/01 06:53:38;;;;;;;;;;;;;;;22.98;54.91;95142.34;5077371;28;1970;-48
2022/08/01 06:56:04;;;;;;;;;;;;;;;23.27;54.68;95144.34;5095262;28;969;-48
2022/08/01 06:58:30;;;;;;;;;;;;;;;23.42;52.60;95141.94;5095320;28;1051;-48
2022/08/01 07:00:56;;;;;;;;;;;;;;;23.44;51.63;95138.97;5095358;28;962;-48
2022/08/01 07:03:22;;;;;;;;;;;;;;;23.55;52.54;95138.94;5095389;28;984;-48
2022/08/01 07:05:48;;;;;;;;;;;;;;;23.58;53.06;95137.59;5095184;28;954;-48
2022/08/01 07:08:14;;;;;;;;;;;;;;;23.66;52.31;95141.88;5094977;28;1985;-48
2022/08/01 07:10:40;;;;;;;;;;;;;;;23.93;53.11;95140.22;5095032;28;1052;-47
2022/08/01 07:13:06;;;;;;;;;;;;;;;24.10;53.73;95131.25;5094943;28;970;-48
2022/08/01 07:15:32;;;;;;;;;;;;;;;24.11;50.88;95143.81;5094780;28;1032;-48
2022/08/01 07:18:01;;;;;;;;;;;;;;;24.13;50.62;95139.78;5095165;28;1033;-48
2022/08/01 07:20:27;;;;;;;;;;;;;;;24.13;54.02;95141.66;5094953;28;960;-48
2022/08/01 07:22:53;;;;;;;;;;;;;;;24.24;53.84;95146.22;5094970;28;1052;-48
2022/08/01 07:25:19;;;;;;;;;;;;;;;24.26;52.95;95140.50;5094592;28;1019;-48
2022/08/01 07:27:45;;;;;;;;;;;;;;;24.40;51.90;95144.59;5094681;28;1918;-48
2022/08/01 07:30:11;;;;;;;;;;;;;;;24.39;50.08;95137.47;5094714;28;977;-48
2022/08/01 07:32:37;;;;;;;;;;;;;;;24.52;51.42;95130.88;5094721;28;1049;-48
2022/08/01 07:35:03;;;;;;;;;;;;;;;24.57;51.70;95130.09;5094585;28;1035;-48
2022/08/01 07:37:29;;;;;;;;;;;;;;;24.61;49.28;95121.19;5094584;28;1032;-48
2022/08/01 07:39:55;;;;;;;;;;;;;;;24.50;46.33;95135.72;5094381;28;1079;-48
2022/08/01 07:42:21;;;;;;;;;;;;;;;24.62;47.30;95127.47;5094403;28;1124;-48
2022/08/01 07:44:47;;;;;;;;;;;;;;;24.88;48.04;95121.28;5112908;28;1154;-48
2022/08/01 07:47:13;;;;;;;;;;;;;;;24.87;49.00;95132.47;5114738;28;1996;-48
2022/08/01 07:49:39;;;;;;;;;;;;;;;25.06;50.95;95128.41;5114753;28;1203;-48
2022/08/01 07:52:05;;;;;;;;;;;;;;;24.98;48.92;95120.59;5113886;28;984;-48
2022/08/01 07:54:31;;;;;;;;;;;;;;;25.03;46.86;95115.22;5114714;28;953;-48
2022/08/01 07:56:57;;;;;;;;;;;;;;;25.10;46.39;95126.81;5114333;28;1119;-48
2022/08/01 07:59:24;;;;;;;;;;;;;;;25.12;47.09;95115.63;5114728;28;1201;-48
2022/08/01 08:01:50;;;;;;;;;;;;;;;25.18;45.25;95124.72;5114339;28;1095;-48
2022/08/01 08:04:17;;;;;;;;;;;;;;;25.04;43.45;95121.50;5114471;28;984;-48
2022/08/01 08:06:44;;;;;;;;;;;;;;;25.01;44.83;95116.56;5114170;28;1910;-48
2022/08/01 08:09:11;;;;;;;;;;;;;;;25.10;45.28;95107.66;5114369;28;1072;-48
2022/08/01 08:11:37;;;;;;;;;;;;;;;25.29;45.58;95108.19;5114094;28;1014;-48
2022/08/01 08:14:03;;;;;;;;;;;;;;;25.45;44.55;95106.47;5114207;28;1008;-48
2022/08/01 08:16:29;;;;;;;;;;;;;;;25.42;43.85;95106.16;5114324;28;954;-48
2022/08/01 08:18:55;;;;;;;;;;;;;;;25.42;44.60;95108.88;5114251;28;1079;-48
2022/08/01 08:21:21;;;;;;;;;;;;;;;25.73;43.61;95103.78;5114060;28;966;-48
2022/08/01 08:26:31;;;;;;;;;;;;;;;24.93;42.63;95098.69;5114131;28;1902;-48
2022/08/01 08:28:57;;;;;;;;;;;;;;;25.25;43.68;95098.00;5114299;28;987;-48
2022/08/01 08:31:23;;;;;;;;;;;;;;;25.25;44.07;95098.00;5114034;28;1005;-48
2022/08/01 08:33:49;;;;;;;;;;;;;;;24.84;44.04;95111.94;5114169;28;1075;-48
2022/08/01 08:36:15;;;;;;;;;;;;;;;24.59;44.58;95103.38;5113795;28;1015;-48
2022/08/01 08:38:41;;;;;;;;;;;;;;;25.04;44.62;95105.94;5113952;28;1033;-48
2022/08/01 08:41:08;;;;;;;;;;;;;;;25.41;44.35;95094.38;5113647;28;1060;-48
2022/08/01 08:43:34;;;;;;;;;;;;;;;25.60;44.84;95097.59;5105590;28;1195;-48
2022/08/01 08:46:01;;;;;;;;;;;;;;;25.76;43.43;95097.75;5093429;28;1910;-48
2022/08/01 08:48:28;;;;;;;;;;;;;;;26.00;44.08;95112.00;5093466;28;1012;-48
2022/08/01 08:50:55;;;;;;;;;;;;;;;26.07;42.09;95109.91;5093372;28;1088;-48
2022/08/01 08:53:21;;;;;;;;;;;;;;;26.04;40.46;95103.00;5093166;28;1974;-48
2022/08/01 08:55:47;;;;;;;;;;;;;;;26.15;44.05;95105.84;5093636;28;1048;-48
2022/08/01 08:58:14;;;;;;;;;;;;;;;25.70;41.98;95102.38;5093305;28;1021;-48
2022/08/01 09:00:40;;;;;;;;;;;;;;;25.31;42.59;95107.94;5093411;28;996;-48
2022/08/01 09:03:06;;;;;;;;;;;;;;;25.16;43.52;95097.59;5094834;28;1044;-48
2022/08/01 09:05:32;;;;;;;;;;;;;;;25.59;43.80;95095.97;5097537;28;1084;-48
2022/08/01 09:07:58;;;;;;;;;;;;;;;25.71;43.01;95099.38;5097225;28;1906;-48
2022/08/01 09:10:25;;;;;;;;;;;;;;;25.48;41.77;95102.41;5097641;28;966;-48
2022/08/01 09:13:03;;;;;;;;;;;;;;;25.82;44.04;95089.34;5097452;28;1021;-48
2022/08/01 09:15:40;;;;;;;;;;;;;;;26.29;45.83;95098.84;5097316;28;1104;-48
2022/08/01 09:18:06;;;;;;;;;;;;;;;25.99;44.32;95092.03;5097151;28;1021;-48
2022/08/01 09:20:34;;;;;;;;;;;;;;;26.18;44.60;95092.47;5097229;28;982;-48
2022/08/01 09:23:00;;;;;;;;;;;;;;;26.34;45.61;95087.94;5097290;28;1044;-48
2022/08/01 09:25:32;;;;;;;;;;;;;;;26.45;41.93;95092.41;5097337;28;990;-48
2022/08/01 09:28:02;;;;;;;;;;;;;;;26.39;41.49;95090.72;5097080;28;1910;-48
2022/08/01 09:30:36;;;;;;;;;;;;;;;26.37;42.84;95087.41;5097196;28;1000;-48
2022/08/01 09:33:02;;;;;;;;;;;;;;;26.50;43.47;95080.63;5096875;28;911;-48
2022/08/01 09:35:29;;;;;;;;;;;;;;;26.51;43.23;95078.75;5097470;28;954;-48
2022/08/01 09:38:26;;;;;;;;;;;;;;;26.60;43.21;95075.28;5096690;28;1012;-48
2022/08/01 09:40:53;;;;;;;;;;;;;;;26.76;41.76;95083.59;5076820;28;1427;-48
2022/08/01 09:43:20;;;;;;;;;;;;;;;26.40;42.82;95080.56;5103021;28;1290;-48
2022/08/01 09:45:47;;;;;;;;;;;;;;;26.28;42.50;95081.56;5117143;28;1036;-48
2022/08/01 09:48:13;;;;;;;;;;;;;;;26.54;43.87;95072.72;5116742;28;1901;-48
2022/08/01 09:50:40;;;;;;;;;;;;;;;26.76;43.52;95067.97;5116842;28;1103;-48
2022/08/01 09:53:06;;;;;;;;;;;;;;;26.79;42.51;95069.38;5116897;28;1227;-48
2022/08/01 09:55:32;;;;;;;;;;;;;;;26.80;42.54;95071.00;5117014;28;1114;-49
2022/08/01 09:58:00;;;;;;;;;;;;;;;26.87;43.99;95068.84;5116863;28;945;-48
2022/08/01 10:00:27;;;;;;;;;;;;;;;27.01;43.16;95066.44;5116796;28;1013;-48
2022/08/01 10:02:53;;;;;;;;;;;;;;;26.97;42.12;95059.84;5116661;28;1008;-48
2022/08/01 10:05:29;;;;;;;;;;;;;;;26.81;43.79;95065.25;5116711;28;1008;-48
2022/08/01 10:08:03;;;;;;;;;;;;;;;26.74;42.10;95063.84;5116564;28;1980;-49
2022/08/01 10:10:30;;;;;;;;;;;;;;;26.76;43.21;95064.41;5116798;28;991;-48
2022/08/01 10:12:57;;;;;;;;;;;;;;;26.78;43.88;95062.22;5116328;28;1252;-48
2022/08/01 10:15:24;;;;;;;;;;;;;;;26.60;44.58;95058.81;5115967;28;1169;-48
2022/08/01 10:17:55;;;;;;;;;;;;;;;26.18;42.96;95053.25;5116523;28;1028;-48
2022/08/01 10:20:23;;;;;;;;;;;;;;;26.30;44.01;95060.22;5116610;28;1065;-48
2022/08/01 10:22:51;;;;;;;;;;;;;;;26.52;44.14;95053.78;5116277;28;1005;-48
2022/08/01 10:25:17;;;;;;;;;;;;;;;26.54;44.15;95043.41;5116376;28;1075;-48
2022/08/01 10:27:45;;;;;;;;;;;;;;;26.24;44.67;95038.53;5116175;28;1913;-48
2022/08/01 10:30:12;;;;;;;;;;;;;;;26.14;45.28;95052.94;5116401;28;986;-48
2022/08/01 10:32:39;;;;;;;;;;;;;;;26.30;43.96;95045.69;5116284;28;1041;-48
2022/08/01 10:35:05;;;;;;;;;;;;;;;26.46;43.59;95036.50;5116105;28;1031;-48
2022/08/01 10:37:33;;;;;;;;;;;;;;;26.59;43.44;95051.69;5116196;28;1096;-48
2022/08/01 10:39:59;;;;;;;;;;;;;;;26.70;43.04;95044.34;5115944;28;989;-48
2022/08/01 10:42:25;;;;;;;;;;;;;;;26.70;42.51;95036.13;5116022;28;1080;-49
2022/08/01 10:44:51;;;;;;;;;;;;;;;26.71;40.98;95042.41;5096525;28;1158;-48
2022/08/01 10:47:20;;;;;;;;;;;;;;;26.60;40.49;95036.06;5095613;28;2001;-48
2022/08/01 10:50:19;;;;;;;;;;;;;;;26.67;41.09;95037.50;5095330;28;1242;-48
2022/08/01 10:53:05;;;;;;;;;;;;;;;26.65;39.82;95041.56;5040187;28;1343;-49
2022/08/01 10:55:45;;;;;;;;;;;;;;;26.50;39.75;95039.50;5095594;28;1024;-48
2022/08/01 10:58:11;;;;;;;;;;;;;;;26.53;40.08;95028.03;5095261;28;1116;-48
2022/08/01 11:00:37;;;;;;;;;;;;;;;26.66;40.99;95024.03;5095283;28;970;-48
2022/08/01 11:03:03;;;;;;;;;;;;;;;26.68;40.35;95028.16;5095187;28;1071;-48
2022/08/01 11:05:34;;;;;;;;;;;;;;;26.74;38.85;95018.03;5095062;28;1052;-48
2022/08/01 11:08:07;;;;;;;;;;;;;;;26.81;39.25;95026.03;5095128;28;1997;-48
2022/08/01 11:10:37;;;;;;;;;;;;;;;26.78;40.04;95027.38;5094969;28;1108;-48
2022/08/01 11:13:07;;;;;;;;;;;;;;;26.78;41.23;95013.66;5095054;28;1091;-48
2022/08/01 11:15:33;;;;;;;;;;;;;;;26.78;38.67;95021.06;5094923;28;1040;-48
2022/08/01 11:18:22;;;;;;;;;;;;;;;26.81;38.68;95012.34;5095255;28;1069;-48
2022/08/01 11:20:57;;;;;;;;;;;;;;;26.74;38.93;95007.06;5094763;28;1743;-48
2022/08/01 11:23:23;;;;;;;;;;;;;;;26.79;40.07;95003.53;5094944;28;965;-49
2022/08/01 11:25:49;;;;;;;;;;;;;;;26.83;38.85;94999.16;5094134;28;1028;-48
2022/08/01 11:28:16;;;;;;;;;;;;;;;26.84;38.90;94992.56;5094174;28;1979;-48
2022/08/01 11:30:43;;;;;;;;;;;;;;;26.83;38.89;95007.41;5094822;28;941;-49
2022/08/01 11:33:10;;;;;;;;;;;;;;;26.81;39.74;94993.13;5094846;28;1015;-48
2022/08/01 11:35:36;;;;;;;;;;;;;;;26.79;39.25;94990.66;5094570;28;1057;-49
2022/08/01 11:38:21;;;;;;;;;;;;;;;26.84;39.29;94992.56;5094727;28;1015;-48
2022/08/01 11:40:47;;;;;;;;;;;;;;;26.87;39.05;94983.81;5094307;28;976;-48
2022/08/01 11:43:13;;;;;;;;;;;;;;;26.90;39.20;94980.56;5081883;28;1166;-48
2022/08/01 11:45:55;;;;;;;;;;;;;;;26.91;38.81;94984.13;5114678;28;1083;-48
2022/08/01 11:48:22;;;;;;;;;;;;;;;26.93;38.64;94980.00;5114650;28;1984;-48
2022/08/01 11:50:50;;;;;;;;;;;;;;;26.91;39.14;94987.69;5114396;28;1226;-49
2022/08/01 11:53:16;;;;;;;;;;;;;;;26.92;39.65;94978.38;5114569;28;962;-49
2022/08/01 11:55:49;;;;;;;;;;;;;;;26.93;39.40;94980.00;5114754;28;1155;-48
2022/08/01 11:58:16;;;;;;;;;;;;;;;26.90;39.12;94976.97;5114778;28;1039;-49
2022/08/01 12:00:49;;;;;;;;;;;;;;;26.92;39.06;94972.88;5114549;28;1024;-48
2022/08/01 12:03:15;;;;;;;;;;;;;;;26.99;40.36;94978.91;5114588;28;980;-49
2022/08/01 12:05:43;;;;;;;;;;;;;;;26.99;39.43;94981.66;5114284;28;1052;-49
2022/08/01 12:08:09;;;;;;;;;;;;;;;27.01;40.41;94970.44;5114392;28;1910;-49
2022/08/01 12:10:36;;;;;;;;;;;;;;;27.08;40.34;94969.06;5114411;28;991;-49
2022/08/01 12:13:03;;;;;;;;;;;;;;;27.14;40.32;94969.09;5114514;28;1228;-49
2022/08/01 12:15:30;;;;;;;;;;;;;;;27.17;41.16;94963.09;5114084;28;1075;-48
2022/08/01 12:17:57;;;;;;;;;;;;;;;27.17;40.85;94969.41;5114307;28;972;-49
2022/08/01 12:20:24;;;;;;;;;;;;;;;27.15;40.17;94959.75;5113948;28;1003;-48
2022/08/01 12:22:55;;;;;;;;;;;;;;;27.16;40.62;94959.50;5114150;28;1028;-48
2022/08/01 12:25:21;;;;;;;;;;;;;;;27.26;39.19;94970.56;5114113;28;1021;-49
2022/08/01 12:27:47;;;;;;;;;;;;;;;27.30;39.09;94964.50;5114037;28;1989;-48
2022/08/01 12:30:18;;;;;;;;;;;;;;;27.31;40.68;94964.25;5113949;28;988;-49
2022/08/01 12:32:48;;;;;;;;;;;;;;;27.25;40.63;94957.09;5114137;28;1023;-49
2022/08/01 12:35:14;;;;;;;;;;;;;;;27.18;40.99;94951.81;5113661;28;957;-48
2022/08/01 12:37:41;;;;;;;;;;;;;;;27.31;40.17;94958.75;5113800;28;996;-48
2022/08/01 12:40:10;;;;;;;;;;;;;;;27.34;41.03;94958.22;5113875;28;1055;-48
2022/08/01 12:42:37;;;;;;;;;;;;;;;27.41;41.23;94960.69;5113719;28;1153;-48
2022/08/01 12:45:03;;;;;;;;;;;;;;;27.47;39.65;94959.63;5093453;28;1029;-48
2022/08/01 12:47:29;;;;;;;;;;;;;;;27.45;39.44;94954.41;5093331;28;1906;-48
2022/08/01 12:53:36;;;;;;;;;;;;;;;27.65;40.42;94948.09;5093664;28;696;-49
2022/08/01 12:56:02;;;;;;;;;;;;;;;27.66;41.19;94948.94;5093132;28;992;-49
2022/08/01 12:58:32;;;;;;;;;;;;;;;27.57;40.86;94945.06;5093687;28;986;-49
2022/08/01 13:01:05;;;;;;;;;;;;;;;27.58;40.71;94944.78;5093611;28;977;-48
2022/08/01 13:03:31;;;;;;;;;;;;;;;27.64;40.68;94942.84;5093508;28;1005;-48
2022/08/01 13:05:58;;;;;;;;;;;;;;;27.71;39.83;94946.16;5093275;28;1052;-48
2022/08/01 13:08:28;;;;;;;;;;;;;;;27.69;41.11;94936.56;5093173;28;1905;-48